createdAt,value
2018-05-09T00:03:09.395Z,55.00
2018-05-09T00:08:13.301Z,55.80
2018-05-09T00:13:20.542Z,56.40
2018-05-09T00:18:25.105Z,56.40
2018-05-09T00:23:31.396Z,55.90
2018-05-09T00:28:37.900Z,55.30
2018-05-09T00:33:43.232Z,55.30
2018-05-09T00:38:48.191Z,54.70
2018-05-09T00:43:53.533Z,55.40
2018-05-09T00:49:00.219Z,55.90
2018-05-09T00:54:23.228Z,55.90
2018-05-09T00:59:31.065Z,55.90
2018-05-09T01:04:36.362Z,56.30
2018-05-09T01:09:42.407Z,55.80
2018-05-09T01:14:45.765Z,55.80
2018-05-09T01:19:50.781Z,56.10
2018-05-09T01:24:54.588Z,57.00
2018-05-09T01:29:58.282Z,56.90
2018-05-09T01:35:02.849Z,57.80
2018-05-09T01:40:09.163Z,57.20
2018-05-09T01:45:18.915Z,57.00
2018-05-09T01:50:23.694Z,56.80
2018-05-09T01:55:30.204Z,56.90
2018-05-09T02:00:36.978Z,57.30
2018-05-09T02:05:44.068Z,57.50
2018-05-09T02:10:48.522Z,57.60
2018-05-09T02:15:55.647Z,57.70
2018-05-09T02:21:03.058Z,57.70
2018-05-09T02:26:08.952Z,57.60
2018-05-09T02:31:13.701Z,57.70
2018-05-09T02:36:19.174Z,57.50
2018-05-09T02:41:22.596Z,57.90
2018-05-09T02:46:29.165Z,58.10
2018-05-09T02:51:33.645Z,58.30
2018-05-09T02:56:37.537Z,58.10
2018-05-09T03:01:44.103Z,57.70
2018-05-09T03:06:49.292Z,56.40
2018-05-09T03:11:52.732Z,57.20
2018-05-09T03:16:58.310Z,57.70
2018-05-09T03:22:02.163Z,57.80
2018-05-09T03:27:06.866Z,57.80
2018-05-09T03:32:08.754Z,58.10
2018-05-09T03:37:13.553Z,57.90
2018-05-09T03:42:17.644Z,57.90
2018-05-09T03:47:22.466Z,58.10
2018-05-09T03:52:27.052Z,58.80
2018-05-09T03:57:31.764Z,58.50
2018-05-09T04:02:52.907Z,58.40
2018-05-09T04:08:14.850Z,58.10
2018-05-09T04:13:18.294Z,57.60
2018-05-09T04:18:21.871Z,57.10
2018-05-09T04:23:24.785Z,56.80
2018-05-09T04:28:29.864Z,56.60
2018-05-09T04:33:33.864Z,56.70
2018-05-09T04:38:39.060Z,57.10
2018-05-09T04:43:43.124Z,56.90
2018-05-09T04:48:44.845Z,55.90
2018-05-09T04:53:51.199Z,51.30
2018-05-09T04:58:55.523Z,48.00
2018-05-09T05:03:59.994Z,45.50
2018-05-09T05:09:05.597Z,44.20
2018-05-09T05:14:09.426Z,43.40
2018-05-09T05:19:13.490Z,44.80
2018-05-09T05:24:19.441Z,45.20
2018-05-09T05:29:24.127Z,44.40
2018-05-09T05:34:27.491Z,42.30
2018-05-09T05:39:32.010Z,41.10
2018-05-09T05:44:35.543Z,38.00
2018-05-09T05:49:39.974Z,36.30
2018-05-09T05:54:44.641Z,37.00
2018-05-09T05:59:49.082Z,36.40
2018-05-09T06:04:55.204Z,35.50
2018-05-09T06:10:00.193Z,35.40
2018-05-09T06:15:05.100Z,36.30
2018-05-09T06:20:12.259Z,37.20
2018-05-09T06:25:17.914Z,37.50
2018-05-09T06:30:30.927Z,36.00
2018-05-09T06:35:35.802Z,36.90
2018-05-09T06:40:40.521Z,37.70
2018-05-09T06:45:45.931Z,35.50
2018-05-09T06:50:53.261Z,38.20
2018-05-09T06:55:59.256Z,36.80
2018-05-09T07:01:03.687Z,36.70
2018-05-09T07:06:09.287Z,34.50
2018-05-09T07:11:15.381Z,34.50
2018-05-09T07:16:19.672Z,33.00
2018-05-09T07:21:25.642Z,35.50
2018-05-09T07:26:29.509Z,32.90
2018-05-09T07:31:35.383Z,32.90
2018-05-09T07:36:40.651Z,33.60
2018-05-09T07:41:47.704Z,32.10
2018-05-09T07:46:53.252Z,32.20
2018-05-09T07:51:59.384Z,31.80
2018-05-09T07:57:06.412Z,31.90
2018-05-09T08:02:11.601Z,30.30
2018-05-09T08:07:16.026Z,30.10
2018-05-09T08:12:20.369Z,30.30
2018-05-09T08:17:24.537Z,30.30
2018-05-09T08:22:28.287Z,29.30
2018-05-09T08:27:33.296Z,31.10
2018-05-09T08:32:41.172Z,30.80
2018-05-09T08:37:44.764Z,30.80
2018-05-09T08:42:50.230Z,28.90
2018-05-09T08:47:53.945Z,27.70
2018-05-09T08:53:00.855Z,28.20
2018-05-09T08:58:05.090Z,29.10
2018-05-09T09:03:11.125Z,30.60
2018-05-09T09:08:16.380Z,32.30
2018-05-09T09:13:19.910Z,30.60
2018-05-09T09:18:22.401Z,28.80
2018-05-09T09:23:29.064Z,28.20
2018-05-09T09:28:34.482Z,28.20
2018-05-09T09:33:38.269Z,28.80
2018-05-09T09:38:41.478Z,27.40
2018-05-09T09:43:43.799Z,28.10
2018-05-09T09:48:46.174Z,29.90
2018-05-09T09:53:48.424Z,30.40
2018-05-09T09:58:49.965Z,29.70
2018-05-09T10:03:51.717Z,29.80
2018-05-09T10:08:53.340Z,29.40
2018-05-09T10:13:54.891Z,30.40
2018-05-09T10:18:56.594Z,31.60
2018-05-09T10:23:58.175Z,31.60
2018-05-09T10:29:00.499Z,32.70
2018-05-09T10:34:02.014Z,32.80
2018-05-09T10:39:04.519Z,33.10
2018-05-09T10:44:06.938Z,33.90
2018-05-09T10:49:08.505Z,33.90
2018-05-09T10:54:10.192Z,31.60
2018-05-09T10:59:11.830Z,33.50
2018-05-09T11:04:13.607Z,30.80
2018-05-09T11:09:15.147Z,30.40
2018-05-09T11:14:16.634Z,31.90
2018-05-09T11:19:18.963Z,29.30
2018-05-09T11:24:20.726Z,29.30
2018-05-09T11:29:23.113Z,28.00
2018-05-09T11:34:24.650Z,28.00
2018-05-09T11:39:26.944Z,30.70
2018-05-09T11:44:28.683Z,30.70
2018-05-09T11:49:30.397Z,31.90
2018-05-09T11:54:31.907Z,31.70
2018-05-09T11:59:33.447Z,30.90
2018-05-09T12:04:35.211Z,29.40
2018-05-09T12:09:36.771Z,29.10
2018-05-09T12:14:38.332Z,29.40
2018-05-09T12:19:40.620Z,28.70
2018-05-09T12:24:42.341Z,28.70
2018-05-09T12:29:43.849Z,30.90
2018-05-09T12:34:46.139Z,29.50
2018-05-09T12:39:48.625Z,31.90
2018-05-09T12:44:50.912Z,33.50
2018-05-09T12:49:53.268Z,34.90
2018-05-09T12:54:55.016Z,34.90
2018-05-09T12:59:56.579Z,34.40
2018-05-09T13:04:58.191Z,35.20
2018-05-09T13:10:00.102Z,34.40
2018-05-09T13:15:01.754Z,35.60
2018-05-09T13:20:04.087Z,31.60
2018-05-09T13:25:05.615Z,31.60
2018-05-09T13:30:07.984Z,31.20
2018-05-09T13:35:09.688Z,31.10
2018-05-09T13:40:11.368Z,33.00
2018-05-09T13:45:13.340Z,30.80
2018-05-09T13:50:21.956Z,30.40
2018-05-09T13:55:23.555Z,30.20
2018-05-09T14:00:25.299Z,32.10
2018-05-09T14:05:28.000Z,31.20
2018-05-09T14:10:29.700Z,31.20
2018-05-09T14:15:31.350Z,31.40
2018-05-09T14:20:32.836Z,30.40
2018-05-09T14:25:34.389Z,30.00
2018-05-09T14:30:37.883Z,29.40
2018-05-09T14:35:40.200Z,28.70
2018-05-09T14:40:42.138Z,28.70
2018-05-09T14:45:43.837Z,29.60
2018-05-09T14:50:45.611Z,29.10
2018-05-09T14:55:47.395Z,30.60
2018-05-09T15:00:49.065Z,31.50
2018-05-09T15:05:50.894Z,32.30
2018-05-09T15:10:53.165Z,39.00
2018-05-09T15:15:54.881Z,39.00
2018-05-09T15:20:56.415Z,41.30
2018-05-09T15:25:58.117Z,38.70
2018-05-09T15:30:59.682Z,37.50
2018-05-09T15:36:02.172Z,34.80
2018-05-09T15:41:04.571Z,35.20
2018-05-09T15:46:06.554Z,35.20
2018-05-09T15:51:08.208Z,35.20
2018-05-09T15:56:10.707Z,34.40
2018-05-09T16:01:12.286Z,34.40
2018-05-09T16:06:14.039Z,35.00
2018-05-09T16:11:16.448Z,37.00
2018-05-09T16:16:19.713Z,37.00
2018-05-09T16:21:23.756Z,38.60
2018-05-09T16:26:29.076Z,33.30
2018-05-09T16:31:35.868Z,33.70
2018-05-09T16:36:41.632Z,33.70
2018-05-09T16:41:46.836Z,36.60
2018-05-09T16:46:52.176Z,36.60
2018-05-09T16:51:56.245Z,37.00
2018-05-09T16:57:00.192Z,40.50
2018-05-09T17:02:05.067Z,40.50
2018-05-09T17:07:09.505Z,39.50
2018-05-09T17:12:14.040Z,36.20
2018-05-09T17:17:18.090Z,36.20
2018-05-09T17:22:33.051Z,35.60
2018-05-09T17:27:37.376Z,36.00
2018-05-09T17:32:41.630Z,36.00
2018-05-09T17:37:43.986Z,37.10
2018-05-09T17:42:48.653Z,36.80
2018-05-09T17:47:53.392Z,37.50
2018-05-09T17:52:56.802Z,39.00
2018-05-09T17:57:59.925Z,40.30
2018-05-09T18:03:03.237Z,41.80
2018-05-09T18:08:06.209Z,42.70
2018-05-09T18:13:17.617Z,44.70
2018-05-09T18:18:20.220Z,44.60
2018-05-09T18:23:22.108Z,49.70
2018-05-09T18:28:25.800Z,52.20
2018-05-09T18:33:31.113Z,52.20
2018-05-09T18:38:35.973Z,53.10
2018-05-09T18:43:40.687Z,53.50
2018-05-09T18:48:46.437Z,52.70
2018-05-09T18:53:51.021Z,53.90
2018-05-09T18:58:55.903Z,53.50
2018-05-09T19:04:01.932Z,53.50
2018-05-09T19:09:06.774Z,54.40
2018-05-09T19:14:11.564Z,54.80
2018-05-09T19:19:16.294Z,54.80
2018-05-09T19:24:22.216Z,53.10
2018-05-09T19:29:26.372Z,53.50
2018-05-09T19:34:29.872Z,52.30
2018-05-09T19:39:36.253Z,51.80
2018-05-09T19:44:39.382Z,53.00
2018-05-09T19:49:44.303Z,54.00
2018-05-09T19:54:46.438Z,53.90
2018-05-09T19:59:48.679Z,55.00
2018-05-09T20:04:53.831Z,56.70
2018-05-09T20:09:59.001Z,56.80
2018-05-09T20:15:04.129Z,57.60
2018-05-09T20:20:08.231Z,57.40
2018-05-09T20:25:13.037Z,58.00
2018-05-09T20:30:22.268Z,58.20
2018-05-09T20:35:28.124Z,58.00
2018-05-09T20:40:34.027Z,58.80
2018-05-09T20:45:37.164Z,58.60
2018-05-09T20:50:40.863Z,59.10
2018-05-09T20:55:44.473Z,59.10
2018-05-09T21:00:49.352Z,60.00
2018-05-09T21:05:50.972Z,63.40
2018-05-09T21:10:52.661Z,63.70
2018-05-09T21:15:57.659Z,62.90
2018-05-09T21:21:02.046Z,60.30
2018-05-09T21:26:07.301Z,60.10
2018-05-09T21:31:12.825Z,60.20
2018-05-09T21:36:16.368Z,60.20
2018-05-09T21:41:21.420Z,59.50
2018-05-09T21:46:26.890Z,60.80
2018-05-09T21:51:35.108Z,60.30
2018-05-09T21:56:40.121Z,60.50
2018-05-09T22:01:44.787Z,59.60
2018-05-09T22:06:50.384Z,58.30
2018-05-09T22:11:55.638Z,57.60
2018-05-09T22:17:04.519Z,57.10
2018-05-09T22:22:10.332Z,56.20
2018-05-09T22:27:16.220Z,56.20
2018-05-09T22:32:22.702Z,54.70
2018-05-09T22:37:30.391Z,56.40
2018-05-09T22:42:36.819Z,55.80
2018-05-09T22:47:42.940Z,58.40
2018-05-09T22:52:50.759Z,58.10
2018-05-09T22:57:57.263Z,58.70
2018-05-09T23:03:04.791Z,58.70
2018-05-09T23:08:13.460Z,59.40
2018-05-09T23:13:20.230Z,59.20
2018-05-09T23:18:25.363Z,59.00
2018-05-09T23:23:31.589Z,58.80
2018-05-09T23:28:37.659Z,58.10
2018-05-09T23:33:43.024Z,58.10
2018-05-09T23:38:48.259Z,57.80
2018-05-09T23:43:53.228Z,57.90
2018-05-09T23:48:58.825Z,58.20
2018-05-09T23:54:03.749Z,58.00
2018-05-09T23:59:12.092Z,59.80
